Nora, Nebraska
Current Conditions -  °F | °C
As of 2:15 PM on Sunday 25 Jan 2015 (Local Time) from KHJH Reporting Station
Overcast Overcast  
Wind Chill: 35°   Ceiling: 3100
Heat Index: 43°   Visibility: 10mi
Dew Point: 28°   Wind: 18mph
Humidity: 57%   Direction: 350°N
Pressure: 30.03"   Gusts: 25mph
Location:  40.2199°N, 98.0479°W
Report Text: KHJH 252015Z AUTO 35016G22KT 10SM OVC031 06/M02 A3003 RMK AO2 T00601020
Loading
Personal Weather Stations






























Interactive Weather Map New forecast layout! Learn more

10-Day Weather Forecast

Advertisements
Track Severe Weather on mobile